Time;durP1;ratioP1;P1;durP2;ratioP2;P2;SDS_P1;SDS_P2;PMS_P1;PMS_P2;Temp;Humidity;BMP_temperature;BMP_pressure;BME280_temperature;BME280_humidity;BME280_pressure;Samples;Min_cycle;Max_cycle;Signal;HPM_P1;HPM_P2
2023/12/12 00:00:29;;;;;;;7.55;1.95;;;6.70;89.10;;;;;;5126488;28;20704;-78
2023/12/12 00:02:56;;;;;;;4.93;1.70;;;6.70;89.00;;;;;;5121029;28;20547;-78
2023/12/12 00:05:21;;;;;;;7.22;2.20;;;6.70;89.00;;;;;;5125033;28;20035;-79
2023/12/12 00:07:47;;;;;;;3.95;1.70;;;6.70;89.00;;;;;;5111141;28;20035;-79
2023/12/12 00:10:13;;;;;;;4.13;1.48;;;6.60;89.00;;;;;;5125801;28;20027;-78
2023/12/12 00:12:38;;;;;;;6.53;1.65;;;6.60;89.00;;;;;;5123813;28;20555;-78
2023/12/12 00:15:04;;;;;;;3.97;1.75;;;6.60;89.00;;;;;;5103758;28;20551;-78
2023/12/12 00:17:30;;;;;;;3.17;1.30;;;6.60;89.10;;;;;;5106632;28;20394;-78
2023/12/12 00:19:56;;;;;;;5.65;1.67;;;6.50;89.10;;;;;;5125583;28;20037;-78
2023/12/12 00:22:21;;;;;;;3.35;1.45;;;6.60;89.20;;;;;;5124930;28;20033;-78
2023/12/12 00:24:47;;;;;;;4.40;1.63;;;6.60;89.30;;;;;;5125008;28;20509;-79
2023/12/12 00:27:12;;;;;;;5.38;1.58;;;6.50;89.30;;;;;;5128434;27;20078;-79
2023/12/12 00:29:38;;;;;;;5.13;1.60;;;6.50;89.40;;;;;;5112221;27;20066;-78
2023/12/12 00:32:04;;;;;;;7.80;2.03;;;6.50;89.40;;;;;;5113415;28;20031;-78
2023/12/12 00:34:30;;;;;;;4.22;1.40;;;6.50;89.40;;;;;;5095263;27;20076;-78
2023/12/12 00:36:56;;;;;;;3.35;1.48;;;6.50;89.30;;;;;;5125174;27;20131;-78
2023/12/12 00:39:21;;;;;;;6.88;2.40;;;6.40;89.20;;;;;;5128577;27;20122;-78
2023/12/12 00:41:48;;;;;;;6.00;2.17;;;6.50;89.30;;;;;;5108658;28;20089;-78
2023/12/12 00:44:14;;;;;;;7.07;1.73;;;6.40;89.20;;;;;;5129013;27;20050;-78
2023/12/12 00:46:40;;;;;;;5.82;1.95;;;6.40;89.20;;;;;;5129838;27;20489;-78
2023/12/12 00:49:05;;;;;;;5.53;1.60;;;6.40;89.20;;;;;;5092361;27;20417;-78
2023/12/12 00:51:32;;;;;;;4.30;1.75;;;6.40;89.20;;;;;;5128895;27;20031;-78
2023/12/12 00:53:58;;;;;;;5.35;1.95;;;6.40;89.30;;;;;;5128699;27;20424;-78
2023/12/12 00:56:23;;;;;;;5.93;1.73;;;6.40;89.30;;;;;;5133216;27;20027;-79
2023/12/12 00:58:49;;;;;;;5.18;1.60;;;6.30;89.30;;;;;;5115490;27;20031;-79
2023/12/12 01:01:15;;;;;;;4.57;1.70;;;6.30;89.30;;;;;;5115572;27;20057;-80
2023/12/12 01:03:40;;;;;;;4.75;1.80;;;6.30;89.40;;;;;;5110071;27;20031;-78
2023/12/12 01:06:06;;;;;;;6.40;2.00;;;6.30;89.40;;;;;;5132319;27;20062;-78
2023/12/12 01:08:33;;;;;;;4.43;1.85;;;6.30;89.50;;;;;;5126117;27;20024;-78
2023/12/12 01:10:58;;;;;;;7.25;2.15;;;6.20;89.50;;;;;;5108968;27;20412;-78
2023/12/12 01:13:24;;;;;;;4.95;1.70;;;6.20;89.50;;;;;;5125902;27;20113;-78
2023/12/12 01:15:50;;;;;;;3.47;2.00;;;6.30;89.60;;;;;;5105808;27;20039;-78
2023/12/12 01:18:15;;;;;;;3.83;1.83;;;6.20;89.60;;;;;;5124527;27;20032;-78
2023/12/12 01:20:41;;;;;;;4.28;1.75;;;6.20;89.60;;;;;;5112944;27;20122;-78
2023/12/12 01:23:06;;;;;;;4.88;1.85;;;6.20;89.60;;;;;;5128245;27;20064;-78
2023/12/12 01:25:32;;;;;;;5.70;2.17;;;6.20;89.60;;;;;;5107682;27;20399;-78
2023/12/12 01:27:57;;;;;;;5.05;1.80;;;6.20;89.70;;;;;;5108793;27;20390;-78
2023/12/12 01:30:23;;;;;;;4.22;1.70;;;6.20;89.70;;;;;;5105125;27;20510;-78
2023/12/12 01:32:49;;;;;;;4.72;1.52;;;6.10;89.70;;;;;;5127515;27;20382;-78
2023/12/12 01:35:14;;;;;;;6.75;2.67;;;6.10;89.70;;;;;;5125403;27;20038;-78
2023/12/12 01:37:40;;;;;;;3.90;1.60;;;6.10;89.80;;;;;;5108596;27;20602;-78
2023/12/12 01:40:08;;;;;;;4.57;1.50;;;6.10;89.80;;;;;;5109088;27;20133;-78
2023/12/12 01:42:33;;;;;;;5.07;1.50;;;6.10;89.90;;;;;;5133152;27;20038;-78
2023/12/12 01:44:59;;;;;;;5.97;2.22;;;6.10;89.90;;;;;;5131533;27;20031;-78
2023/12/12 01:47:26;;;;;;;4.95;1.70;;;6.10;89.90;;;;;;5131879;27;20035;-78
2023/12/12 01:49:52;;;;;;;4.28;1.85;;;6.10;89.90;;;;;;5127432;27;20043;-77
2023/12/12 01:52:20;;;;;;;4.55;1.70;;;6.10;89.90;;;;;;5105591;28;20031;-78
2023/12/12 01:54:49;;;;;;;3.05;1.50;;;6.10;89.90;;;;;;5127096;27;20494;-78
2023/12/12 01:57:16;;;;;;;5.13;1.50;;;6.10;90.00;;;;;;5108070;27;20399;-77
2023/12/12 01:59:46;;;;;;;6.00;1.95;;;6.10;89.90;;;;;;5127602;27;20393;-78
2023/12/12 02:02:14;;;;;;;11.50;2.15;;;6.00;89.80;;;;;;5125504;27;20040;-78
2023/12/12 02:04:40;;;;;;;5.18;1.70;;;6.00;89.70;;;;;;5107469;27;20044;-78
2023/12/12 02:07:06;;;;;;;3.67;1.63;;;6.00;89.70;;;;;;5122622;27;20028;-78
2023/12/12 02:09:32;;;;;;;7.43;2.33;;;6.00;89.70;;;;;;5124400;27;20114;-78
2023/12/12 02:11:58;;;;;;;4.78;1.80;;;5.90;89.60;;;;;;5130587;27;20431;-78
2023/12/12 02:14:24;;;;;;;4.47;1.70;;;5.90;89.70;;;;;;5128903;27;20119;-78
2023/12/12 02:16:50;;;;;;;4.70;1.92;;;5.90;89.60;;;;;;5123783;27;20059;-78
2023/12/12 02:19:16;;;;;;;4.05;1.70;;;5.90;89.70;;;;;;5122538;27;20043;-78
2023/12/12 02:21:42;;;;;;;3.92;1.30;;;5.80;89.70;;;;;;5115000;27;20478;-79
2023/12/12 02:24:07;;;;;;;4.43;2.00;;;5.90;89.80;;;;;;5105591;27;20031;-78
2023/12/12 02:26:33;;;;;;;3.67;1.42;;;5.80;89.80;;;;;;5126558;27;20413;-78
2023/12/12 02:28:58;;;;;;;3.47;2.00;;;5.80;89.90;;;;;;5105330;28;20039;-78
2023/12/12 02:31:24;;;;;;;4.82;1.60;;;5.80;89.90;;;;;;5108950;28;20044;-79
2023/12/12 02:33:49;;;;;;;4.05;1.48;;;5.80;90.00;;;;;;5109614;27;20043;-78
2023/12/12 02:36:15;;;;;;;4.07;1.58;;;5.80;90.00;;;;;;5127726;27;20049;-78
2023/12/12 02:38:41;;;;;;;4.93;1.63;;;5.80;90.00;;;;;;5125258;27;20043;-78
2023/12/12 02:41:08;;;;;;;4.25;1.60;;;5.80;90.10;;;;;;5128196;27;20041;-78
2023/12/12 02:43:34;;;;;;;4.75;2.05;;;5.80;90.10;;;;;;5107095;27;20489;-78
2023/12/12 02:46:00;;;;;;;4.97;1.77;;;5.80;90.10;;;;;;5103858;27;20067;-78
2023/12/12 02:48:26;;;;;;;4.07;2.00;;;5.70;90.10;;;;;;5108062;27;20074;-78
2023/12/12 02:50:52;;;;;;;4.53;2.40;;;5.80;90.20;;;;;;5130750;27;20035;-78
2023/12/12 02:53:17;;;;;;;4.15;2.08;;;5.70;90.20;;;;;;5117411;27;20042;-79
2023/12/12 02:55:43;;;;;;;3.53;1.80;;;5.70;90.20;;;;;;5125835;27;20402;-78
2023/12/12 02:58:09;;;;;;;4.60;2.08;;;5.70;90.20;;;;;;5108699;28;20073;-78
2023/12/12 03:00:34;;;;;;;5.47;1.85;;;5.70;90.20;;;;;;5111755;27;20032;-78
2023/12/12 03:03:00;;;;;;;8.65;3.10;;;5.70;90.30;;;;;;5111495;27;20039;-79
2023/12/12 03:05:25;;;;;;;4.50;2.28;;;5.70;90.30;;;;;;5114861;27;20102;-79
2023/12/12 03:07:51;;;;;;;8.45;4.13;;;5.70;90.30;;;;;;5090380;27;20090;-78
2023/12/12 03:10:17;;;;;;;8.45;4.55;;;5.70;90.30;;;;;;5126581;27;20032;-78
2023/12/12 03:12:43;;;;;;;6.82;3.53;;;5.70;90.30;;;;;;5131715;27;20027;-78
2023/12/12 03:15:09;;;;;;;6.95;3.80;;;5.70;90.30;;;;;;5114378;27;20060;-79
2023/12/12 03:17:34;;;;;;;11.85;3.90;;;5.60;90.30;;;;;;5128024;27;20043;-79
2023/12/12 03:20:00;;;;;;;6.47;3.55;;;5.60;90.30;;;;;;5129042;27;20037;-79
2023/12/12 03:22:25;;;;;;;6.60;2.47;;;5.60;90.20;;;;;;5105161;27;20123;-78
2023/12/12 03:24:51;;;;;;;6.30;2.17;;;5.50;90.00;;;;;;5108547;27;20054;-78
2023/12/12 03:27:17;;;;;;;8.32;2.30;;;5.50;89.70;;;;;;5127864;27;20524;-78
2023/12/12 03:29:42;;;;;;;4.68;2.00;;;5.40;89.30;;;;;;5123267;27;20039;-78
2023/12/12 03:32:08;;;;;;;7.25;2.47;;;5.30;89.30;;;;;;5122749;27;20031;-78
2023/12/12 03:34:33;;;;;;;7.57;2.83;;;5.20;89.50;;;;;;5128556;27;20538;-79
2023/12/12 03:36:59;;;;;;;6.45;2.53;;;5.20;89.60;;;;;;5110622;27;20062;-78
2023/12/12 03:39:24;;;;;;;3.40;1.83;;;5.10;89.60;;;;;;5132065;27;20031;-78
2023/12/12 03:41:50;;;;;;;4.47;2.40;;;5.10;89.60;;;;;;5126027;27;20041;-78
2023/12/12 03:44:16;;;;;;;6.20;2.00;;;5.10;89.70;;;;;;5093531;27;20035;-78
2023/12/12 03:46:41;;;;;;;4.25;2.00;;;5.00;89.60;;;;;;5111031;27;20047;-78
2023/12/12 03:49:07;;;;;;;4.07;2.10;;;5.00;89.40;;;;;;5131200;27;20039;-78
2023/12/12 03:51:32;;;;;;;6.18;2.40;;;5.00;89.10;;;;;;5108608;27;20038;-78
2023/12/12 03:53:58;;;;;;;4.15;2.00;;;4.90;89.00;;;;;;5095271;28;20043;-78
2023/12/12 03:56:23;;;;;;;5.13;2.72;;;4.90;89.30;;;;;;5109954;27;20535;-78
2023/12/12 03:58:49;;;;;;;10.77;3.85;;;4.90;89.50;;;;;;5107619;28;20028;-78
2023/12/12 04:01:15;;;;;;;6.82;3.40;;;4.90;89.70;;;;;;5110935;28;20043;-79
2023/12/12 04:03:40;;;;;;;8.82;4.60;;;4.90;89.90;;;;;;5110332;28;20039;-78
2023/12/12 04:06:06;;;;;;;5.90;3.70;;;4.90;90.00;;;;;;5113438;28;20036;-79
2023/12/12 04:08:32;;;;;;;10.05;4.78;;;4.80;90.00;;;;;;5107415;28;20092;-78
2023/12/12 04:10:58;;;;;;;9.45;4.07;;;4.90;90.00;;;;;;5126828;28;20491;-78
2023/12/12 04:13:23;;;;;;;9.02;5.00;;;4.80;90.00;;;;;;5104332;28;20063;-78
2023/12/12 04:15:49;;;;;;;8.57;4.85;;;4.80;90.10;;;;;;5107482;28;20036;-78
2023/12/12 04:18:15;;;;;;;10.20;4.85;;;4.80;90.10;;;;;;5127001;28;20114;-78
2023/12/12 04:20:40;;;;;;;11.65;5.32;;;4.80;90.10;;;;;;5129170;28;20039;-78
2023/12/12 04:23:06;;;;;;;8.75;5.40;;;4.80;90.20;;;;;;5131028;28;20037;-78
2023/12/12 04:25:32;;;;;;;5.85;3.80;;;4.80;90.30;;;;;;5111104;28;20126;-79
2023/12/12 04:27:58;;;;;;;6.30;3.55;;;4.80;90.30;;;;;;5129135;28;20593;-78
2023/12/12 04:30:24;;;;;;;8.80;3.97;;;4.80;90.40;;;;;;5109623;28;20043;-78
2023/12/12 04:32:49;;;;;;;8.63;4.05;;;4.80;90.50;;;;;;5109806;28;20031;-78
2023/12/12 04:35:16;;;;;;;7.45;4.10;;;4.80;90.60;;;;;;5113265;28;20035;-79
2023/12/12 04:37:42;;;;;;;6.03;3.75;;;4.90;90.70;;;;;;5108391;28;20463;-78
2023/12/12 04:40:07;;;;;;;10.35;5.28;;;4.90;90.70;;;;;;5123413;28;20031;-78
2023/12/12 04:42:33;;;;;;;12.73;6.03;;;4.90;90.80;;;;;;5109853;28;20036;-78
2023/12/12 04:44:59;;;;;;;12.35;5.53;;;4.90;90.80;;;;;;5107167;28;20046;-79
2023/12/12 04:47:24;;;;;;;8.57;5.10;;;4.90;90.80;;;;;;5105708;28;20074;-78
2023/12/12 04:49:51;;;;;;;11.18;7.00;;;4.90;90.80;;;;;;5095303;28;20421;-78
2023/12/12 04:52:16;;;;;;;10.45;6.78;;;4.90;90.90;;;;;;5105589;28;20034;-78
2023/12/12 04:54:42;;;;;;;13.48;7.63;;;4.90;90.90;;;;;;5125648;28;20437;-78
2023/12/12 04:57:08;;;;;;;11.77;7.18;;;4.90;91.00;;;;;;5126001;28;20037;-78
2023/12/12 04:59:33;;;;;;;12.52;7.47;;;4.90;91.00;;;;;;5129492;28;20043;-78
2023/12/12 05:02:00;;;;;;;8.57;6.03;;;5.00;91.10;;;;;;5106492;28;20074;-78
2023/12/12 05:04:25;;;;;;;9.73;5.78;;;5.00;91.10;;;;;;5108868;28;20039;-78
2023/12/12 05:06:51;;;;;;;11.40;6.43;;;5.00;91.20;;;;;;5110713;28;20481;-79
2023/12/12 05:09:17;;;;;;;12.73;8.20;;;5.00;91.20;;;;;;5112025;28;20099;-78
2023/12/12 05:11:42;;;;;;;13.02;7.50;;;5.00;91.30;;;;;;5098486;27;20054;-78
2023/12/12 05:14:10;;;;;;;12.65;8.30;;;5.00;91.30;;;;;;5112490;28;20036;-79
2023/12/12 05:16:36;;;;;;;12.13;6.72;;;5.10;91.40;;;;;;5113893;27;20084;-79
2023/12/12 05:19:02;;;;;;;10.13;6.40;;;5.00;91.50;;;;;;5128182;27;20039;-78
2023/12/12 05:21:28;;;;;;;11.50;6.93;;;5.10;91.40;;;;;;5134033;27;20109;-79
2023/12/12 05:23:53;;;;;;;10.32;6.63;;;5.10;91.40;;;;;;5128158;27;20508;-79
2023/12/12 05:26:19;;;;;;;14.25;7.97;;;5.10;91.50;;;;;;5111771;27;20043;-78
2023/12/12 05:28:45;;;;;;;16.75;8.32;;;5.10;91.50;;;;;;5091053;27;20039;-78
2023/12/12 05:31:11;;;;;;;12.32;6.53;;;5.10;91.40;;;;;;5112355;27;20031;-78
2023/12/12 05:33:37;;;;;;;13.07;7.78;;;5.10;91.40;;;;;;5108941;27;20051;-78
2023/12/12 05:36:03;;;;;;;14.10;7.65;;;5.10;91.40;;;;;;5110302;27;20044;-78
2023/12/12 05:38:29;;;;;;;14.38;8.18;;;5.10;91.50;;;;;;5110482;27;20455;-78
2023/12/12 05:40:56;;;;;;;14.63;7.85;;;5.10;91.50;;;;;;5113722;27;20039;-79
2023/12/12 05:43:21;;;;;;;12.82;7.45;;;5.10;91.50;;;;;;5113688;27;20039;-79
2023/12/12 05:45:47;;;;;;;11.30;7.40;;;5.20;91.60;;;;;;5132921;27;20039;-79
2023/12/12 05:48:13;;;;;;;13.05;7.47;;;5.20;91.60;;;;;;5112383;27;20044;-79
2023/12/12 05:50:39;;;;;;;20.63;8.57;;;5.20;91.60;;;;;;5112808;27;20046;-78
2023/12/12 05:53:04;;;;;;;12.13;7.72;;;5.20;91.60;;;;;;5129273;27;20172;-79
2023/12/12 05:55:30;;;;;;;16.83;8.32;;;5.20;91.60;;;;;;5114157;27;20490;-79
2023/12/12 05:57:56;;;;;;;17.52;9.35;;;5.20;91.70;;;;;;5112811;27;20046;-79
2023/12/12 06:00:21;;;;;;;17.70;9.82;;;5.20;91.70;;;;;;5106683;27;20166;-79
2023/12/12 06:02:47;;;;;;;17.15;9.52;;;5.30;91.80;;;;;;5109984;27;20031;-78
2023/12/12 06:05:13;;;;;;;14.82;9.48;;;5.20;91.80;;;;;;5092286;27;20031;-79
2023/12/12 06:07:39;;;;;;;23.45;9.88;;;5.30;91.80;;;;;;5110440;27;20118;-79
2023/12/12 06:10:06;;;;;;;19.63;11.07;;;5.30;91.80;;;;;;5106840;27;20040;-78
2023/12/12 06:12:31;;;;;;;31.00;10.80;;;5.30;91.90;;;;;;5130601;27;20038;-79
2023/12/12 06:14:57;;;;;;;14.65;9.13;;;5.30;91.90;;;;;;5126855;27;20039;-79
2023/12/12 06:17:23;;;;;;;15.40;10.25;;;5.30;91.90;;;;;;5126038;27;20043;-78
2023/12/12 06:19:49;;;;;;;14.25;8.93;;;5.30;92.00;;;;;;5118919;27;20037;-78
2023/12/12 06:22:15;;;;;;;18.55;11.27;;;5.30;92.00;;;;;;5138058;27;20031;-78
2023/12/12 06:24:40;;;;;;;21.67;12.75;;;5.40;92.10;;;;;;5112306;27;20095;-78
2023/12/12 06:27:06;;;;;;;20.05;12.25;;;5.40;92.10;;;;;;5111530;27;20042;-78
2023/12/12 06:29:32;;;;;;;18.67;10.88;;;5.40;92.10;;;;;;5107644;28;20031;-79
2023/12/12 06:31:58;;;;;;;20.40;12.60;;;5.40;92.10;;;;;;5110168;27;20064;-79
2023/12/12 06:34:23;;;;;;;25.27;14.70;;;5.40;92.20;;;;;;5112729;27;20039;-79
2023/12/12 06:36:49;;;;;;;24.65;14.60;;;5.40;92.20;;;;;;5129782;27;20482;-79
2023/12/12 06:39:15;;;;;;;25.83;14.77;;;5.50;92.20;;;;;;5106063;27;20079;-78
2023/12/12 06:41:40;;;;;;;21.83;13.00;;;5.50;92.20;;;;;;5109813;27;20031;-78
2023/12/12 06:44:06;;;;;;;29.52;12.85;;;5.50;92.30;;;;;;5104715;27;20035;-79
2023/12/12 06:46:32;;;;;;;23.83;15.90;;;5.50;92.30;;;;;;5106912;27;20070;-78
2023/12/12 06:48:57;;;;;;;29.50;16.83;;;5.50;92.30;;;;;;5106799;27;20085;-79
2023/12/12 06:51:23;;;;;;;50.20;17.50;;;5.50;92.30;;;;;;5105507;27;20393;-78
2023/12/12 06:53:49;;;;;;;24.00;15.35;;;5.50;92.30;;;;;;5088320;27;20043;-78
2023/12/12 06:56:14;;;;;;;182.55;21.13;;;5.60;92.40;;;;;;5102780;27;20084;-79
2023/12/12 06:58:40;;;;;;;99.28;17.02;;;5.60;92.40;;;;;;5103748;28;20039;-77
2023/12/12 07:01:08;;;;;;;39.47;16.80;;;5.60;92.40;;;;;;5106693;27;20043;-78
2023/12/12 07:03:34;;;;;;;26.95;17.38;;;5.60;92.40;;;;;;5110749;27;20868;-77
2023/12/12 07:06:02;;;;;;;27.73;16.95;;;5.60;92.40;;;;;;5110575;27;20046;-77
2023/12/12 07:08:28;;;;;;;28.38;17.05;;;5.60;92.40;;;;;;5125000;27;20040;-77
2023/12/12 07:10:53;;;;;;;27.90;16.73;;;5.70;92.50;;;;;;5109895;27;20115;-78
2023/12/12 07:13:19;;;;;;;28.33;15.40;;;5.60;92.50;;;;;;5108729;27;20039;-77
2023/12/12 07:15:44;;;;;;;23.63;15.20;;;5.70;92.50;;;;;;5109394;27;20277;-77
2023/12/12 07:18:12;;;;;;;26.60;15.65;;;5.70;92.50;;;;;;5089231;27;20038;-77
2023/12/12 07:20:38;;;;;;;23.40;14.70;;;5.70;92.60;;;;;;5107246;27;20039;-79
2023/12/12 07:23:04;;;;;;;22.08;14.68;;;5.70;92.60;;;;;;5121651;27;20031;-78
2023/12/12 07:25:30;;;;;;;25.50;17.42;;;5.70;92.60;;;;;;5127425;27;20035;-78
2023/12/12 07:27:56;;;;;;;28.48;17.27;;;5.90;92.70;;;;;;5104249;27;20053;-77
2023/12/12 07:30:21;;;;;;;22.92;15.23;;;5.70;92.60;;;;;;5103143;27;20057;-77
2023/12/12 07:32:47;;;;;;;27.55;17.00;;;5.70;92.60;;;;;;5094820;27;20096;-77
2023/12/12 07:35:13;;;;;;;28.25;17.77;;;5.70;92.60;;;;;;5105118;28;20039;-78
2023/12/12 07:37:38;;;;;;;26.48;17.60;;;5.70;92.60;;;;;;5105552;27;20130;-79
2023/12/12 07:40:06;;;;;;;19.80;14.05;;;5.70;92.50;;;;;;5126637;27;20122;-79
2023/12/12 07:42:31;;;;;;;25.67;15.68;;;5.60;92.50;;;;;;5125748;27;20084;-78
2023/12/12 07:44:57;;;;;;;26.73;17.10;;;5.60;92.50;;;;;;5131622;27;20031;-78
2023/12/12 07:47:23;;;;;;;24.10;17.02;;;5.60;92.50;;;;;;5127663;27;20028;-78
2023/12/12 07:49:49;;;;;;;23.30;16.92;;;5.60;92.50;;;;;;5113018;28;20539;-78
2023/12/12 07:52:15;;;;;;;26.40;18.63;;;5.60;92.50;;;;;;5086794;27;20062;-78
2023/12/12 07:54:42;;;;;;;24.65;17.58;;;5.60;92.50;;;;;;5129137;27;20031;-78
2023/12/12 07:57:09;;;;;;;26.98;17.48;;;5.60;92.50;;;;;;5086707;28;20442;-78
2023/12/12 07:59:34;;;;;;;25.02;17.70;;;5.60;92.50;;;;;;5128369;27;21466;-78
2023/12/12 08:02:00;;;;;;;28.30;17.55;;;5.60;92.50;;;;;;5128301;28;20112;-78
2023/12/12 08:04:26;;;;;;;26.05;17.38;;;5.60;92.40;;;;;;5127423;28;20032;-78
2023/12/12 08:06:51;;;;;;;26.73;16.27;;;5.60;92.40;;;;;;5123976;28;20036;-78
2023/12/12 08:09:17;;;;;;;26.58;18.50;;;5.50;92.40;;;;;;5128190;28;20102;-78
2023/12/12 08:11:42;;;;;;;30.35;19.55;;;5.50;92.40;;;;;;5124247;28;20078;-78
2023/12/12 08:14:08;;;;;;;26.20;17.45;;;5.50;92.40;;;;;;5124384;28;20067;-78
2023/12/12 08:16:33;;;;;;;34.33;19.45;;;5.50;92.40;;;;;;5125812;28;20042;-78
2023/12/12 08:19:00;;;;;;;23.00;17.30;;;5.50;92.40;;;;;;5103891;28;20398;-78
2023/12/12 08:21:26;;;;;;;24.98;16.63;;;5.50;92.40;;;;;;5111735;28;20046;-78
2023/12/12 08:23:54;;;;;;;28.13;19.17;;;5.50;92.40;;;;;;5125369;28;20031;-78
2023/12/12 08:26:22;;;;;;;23.95;18.65;;;5.40;92.40;;;;;;5129506;28;20092;-78
2023/12/12 08:28:48;;;;;;;27.77;16.73;;;5.50;92.40;;;;;;5127448;28;20087;-78
2023/12/12 08:31:14;;;;;;;17.85;13.63;;;5.40;92.40;;;;;;5127110;28;20050;-79
2023/12/12 08:33:39;;;;;;;148.02;16.23;;;5.40;92.40;;;;;;5111468;28;20035;-79
2023/12/12 08:36:06;;;;;;;46.72;13.25;;;5.40;92.40;;;;;;5108822;28;20048;-79
2023/12/12 08:38:32;;;;;;;38.30;13.55;;;5.40;92.30;;;;;;5106470;28;20040;-78
2023/12/12 08:40:59;;;;;;;43.10;16.85;;;5.40;92.30;;;;;;5130149;28;20118;-78
2023/12/12 08:43:25;;;;;;;37.33;18.55;;;5.30;92.30;;;;;;5127544;28;20039;-78
2023/12/12 08:45:52;;;;;;;73.25;22.83;;;5.30;92.50;;;;;;5111615;28;20114;-79
2023/12/12 08:48:18;;;;;;;82.97;19.70;;;5.30;92.30;;;;;;5127363;27;20045;-79
2023/12/12 08:50:44;;;;;;;83.55;19.95;;;5.20;92.30;;;;;;5109098;27;20122;-78
2023/12/12 08:53:10;;;;;;;27.85;16.70;;;5.20;92.40;;;;;;5109257;27;20039;-78
2023/12/12 08:55:36;;;;;;;40.80;18.73;;;5.20;92.40;;;;;;5107772;28;20092;-78
2023/12/12 08:58:01;;;;;;;34.28;19.85;;;5.20;92.40;;;;;;5128835;27;20031;-78
2023/12/12 09:00:27;;;;;;;56.85;21.85;;;5.20;92.40;;;;;;5110176;27;20074;-78
2023/12/12 09:02:52;;;;;;;59.45;21.50;;;5.20;92.50;;;;;;5127245;27;20081;-78
2023/12/12 09:05:18;;;;;;;79.57;21.42;;;5.20;92.50;;;;;;5128016;27;20032;-78
2023/12/12 09:07:44;;;;;;;38.67;20.38;;;5.20;92.50;;;;;;5128226;27;20035;-78
2023/12/12 09:10:10;;;;;;;50.58;21.40;;;5.20;92.60;;;;;;5110378;27;20092;-78
2023/12/12 09:12:35;;;;;;;62.92;22.95;;;5.20;92.60;;;;;;5128070;27;20091;-78
2023/12/12 09:15:02;;;;;;;34.70;23.20;;;5.20;92.60;;;;;;5118706;27;20038;-78
2023/12/12 09:17:27;;;;;;;37.58;22.45;;;5.20;92.70;;;;;;5096231;27;20047;-78
2023/12/12 09:19:53;;;;;;;42.97;23.55;;;5.20;92.70;;;;;;5129904;27;20043;-78
2023/12/12 09:22:19;;;;;;;63.78;26.85;;;5.30;92.80;;;;;;5108875;27;20035;-78
2023/12/12 09:24:44;;;;;;;42.13;26.42;;;5.30;92.80;;;;;;5127845;27;20031;-79
2023/12/12 09:27:10;;;;;;;48.78;27.23;;;5.30;92.90;;;;;;5111830;28;20080;-79
2023/12/12 09:29:35;;;;;;;41.47;26.25;;;5.40;92.90;;;;;;5131865;27;20122;-79
2023/12/12 09:32:01;;;;;;;48.15;26.70;;;5.60;93.10;;;;;;5098199;27;20111;-79
2023/12/12 09:34:27;;;;;;;52.25;27.98;;;5.50;93.10;;;;;;5109137;27;20050;-79
2023/12/12 09:36:52;;;;;;;44.78;26.08;;;5.50;93.10;;;;;;5131765;27;20055;-79
2023/12/12 09:39:18;;;;;;;44.50;26.40;;;5.50;93.10;;;;;;5111089;28;20043;-79
2023/12/12 09:41:47;;;;;;;45.17;26.52;;;5.50;93.10;;;;;;5111628;27;20048;-79
2023/12/12 09:44:17;;;;;;;52.28;28.75;;;5.60;93.40;;;;;;5133292;27;20027;-79
2023/12/12 09:46:46;;;;;;;47.70;27.85;;;5.70;93.20;;;;;;5113242;27;20035;-79
2023/12/12 09:49:14;;;;;;;50.38;28.27;;;5.80;93.30;;;;;;5095704;27;20043;-80
2023/12/12 09:51:42;;;;;;;48.47;26.73;;;5.70;93.30;;;;;;5110194;27;20036;-79
2023/12/12 09:54:10;;;;;;;53.10;29.23;;;5.70;93.30;;;;;;5127112;27;20043;-79
2023/12/12 09:56:40;;;;;;;56.20;30.00;;;5.80;93.30;;;;;;5111408;27;20500;-79
2023/12/12 09:59:05;;;;;;;50.90;27.23;;;5.80;93.30;;;;;;5094209;27;20061;-79
2023/12/12 10:01:35;;;;;;;46.63;28.23;;;5.80;93.30;;;;;;5130061;27;20027;-80
2023/12/12 10:04:06;;;;;;;47.72;28.25;;;5.90;93.40;;;;;;5111949;27;20469;-79
2023/12/12 10:06:39;;;;;;;46.08;26.75;;;5.90;93.40;;;;;;5109636;28;20035;-79
2023/12/12 10:09:06;;;;;;;50.75;30.02;;;5.90;93.40;;;;;;5115165;27;20076;-79
2023/12/12 10:11:31;;;;;;;53.55;28.77;;;5.90;93.40;;;;;;5107118;27;20067;-79
2023/12/12 10:14:00;;;;;;;58.08;30.30;;;6.00;93.40;;;;;;5111648;27;20426;-79
2023/12/12 10:16:27;;;;;;;49.33;28.98;;;6.00;93.40;;;;;;5116477;27;20438;-79
2023/12/12 10:18:52;;;;;;;51.33;28.55;;;6.00;93.40;;;;;;5108379;27;20508;-79
2023/12/12 10:21:23;;;;;;;49.90;28.60;;;6.00;93.40;;;;;;5092815;27;20027;-79
2023/12/12 10:23:50;;;;;;;52.40;27.10;;;6.10;93.50;;;;;;5094744;27;20032;-79
2023/12/12 10:26:29;;;;;;;55.63;29.90;;;6.10;93.50;;;;;;5095072;27;20077;-79
2023/12/12 10:29:00;;;;;;;51.20;28.25;;;6.10;93.50;;;;;;5109102;28;20071;-80
2023/12/12 10:31:26;;;;;;;54.78;29.63;;;6.20;93.60;;;;;;5097767;27;20043;-79
2023/12/12 10:33:55;;;;;;;55.92;29.52;;;6.20;93.60;;;;;;5092481;27;20039;-79
2023/12/12 10:36:21;;;;;;;57.47;29.75;;;6.20;93.60;;;;;;5113172;27;20047;-79
2023/12/12 10:38:46;;;;;;;57.05;30.15;;;6.20;93.60;;;;;;5103096;28;20042;-80
2023/12/12 10:41:20;;;;;;;55.55;29.95;;;6.30;93.60;;;;;;5096141;27;20027;-79
2023/12/12 10:43:47;;;;;;;58.28;30.70;;;6.40;93.70;;;;;;5115216;27;20409;-79
2023/12/12 10:46:18;;;;;;;60.72;31.45;;;6.40;93.70;;;;;;5128074;27;20036;-80
2023/12/12 10:48:45;;;;;;;64.22;33.03;;;6.40;93.70;;;;;;5126503;27;20032;-80
2023/12/12 10:51:15;;;;;;;59.80;32.53;;;6.40;93.70;;;;;;5130785;27;20040;-79
2023/12/12 10:53:42;;;;;;;66.30;35.10;;;6.50;93.70;;;;;;5108406;28;20147;-79
2023/12/12 10:56:09;;;;;;;62.35;33.20;;;6.50;93.80;;;;;;5126201;27;20031;-79
2023/12/12 10:58:37;;;;;;;58.45;32.63;;;6.60;93.80;;;;;;5109437;27;20501;-79
2023/12/12 11:01:04;;;;;;;59.33;31.25;;;6.60;93.80;;;;;;5127122;27;20447;-79
2023/12/12 11:03:31;;;;;;;56.10;29.17;;;6.60;93.80;;;;;;5127817;27;20042;-79
2023/12/12 11:05:58;;;;;;;51.35;30.25;;;6.70;93.80;;;;;;5094051;27;20509;-79
2023/12/12 11:08:25;;;;;;;54.65;30.67;;;6.70;93.80;;;;;;5111770;27;20050;-80
2023/12/12 11:10:52;;;;;;;52.25;30.10;;;6.70;93.80;;;;;;5132620;27;20118;-79
2023/12/12 11:13:19;;;;;;;54.63;30.33;;;6.80;93.80;;;;;;5095073;27;20118;-79
2023/12/12 11:15:46;;;;;;;56.97;30.25;;;6.80;93.80;;;;;;5111079;27;20042;-79
2023/12/12 11:18:14;;;;;;;55.72;28.65;;;6.80;93.80;;;;;;5113399;27;20065;-79
2023/12/12 11:20:40;;;;;;;59.75;30.70;;;6.80;93.80;;;;;;5110400;27;20049;-79
2023/12/12 11:23:07;;;;;;;51.58;28.50;;;6.90;93.90;;;;;;5115439;27;20446;-79
2023/12/12 11:25:34;;;;;;;52.88;29.13;;;6.90;93.90;;;;;;5133610;27;20027;-79
2023/12/12 11:28:01;;;;;;;56.30;29.70;;;6.90;93.90;;;;;;5133112;27;20106;-79
2023/12/12 11:30:45;;;;;;;53.88;28.20;;;6.90;93.90;;;;;;5116206;27;20039;-79
2023/12/12 11:33:11;;;;;;;52.65;27.15;;;7.00;94.00;;;;;;5125755;27;20035;-79
2023/12/12 11:35:37;;;;;;;45.85;25.90;;;7.00;93.90;;;;;;5112554;27;20443;-79
2023/12/12 11:38:04;;;;;;;51.40;26.95;;;7.00;93.90;;;;;;5113472;27;20072;-80
2023/12/12 11:40:33;;;;;;;52.55;26.98;;;7.00;93.90;;;;;;5099596;27;20134;-80
2023/12/12 11:43:24;;;;;;;43.95;25.05;;;7.10;93.90;;;;;;5112500;27;20039;-80
2023/12/12 11:45:50;;;;;;;47.20;25.15;;;7.10;94.00;;;;;;5116058;27;20043;-80
2023/12/12 11:48:16;;;;;;;41.03;24.17;;;7.10;93.90;;;;;;5112007;27;20095;-79
2023/12/12 11:50:42;;;;;;;46.65;24.65;;;7.10;93.90;;;;;;5125038;27;20070;-79
2023/12/12 11:53:08;;;;;;;40.10;24.20;;;7.10;93.90;;;;;;5110137;28;20469;-79
2023/12/12 11:55:42;;;;;;;46.00;24.83;;;7.20;93.90;;;;;;5108360;28;20122;-78
2023/12/12 11:58:07;;;;;;;46.05;23.40;;;7.20;93.90;;;;;;5108854;28;20485;-79
2023/12/12 12:00:37;;;;;;;46.22;23.40;;;7.20;94.00;;;;;;5125512;28;20027;-79
2023/12/12 12:03:04;;;;;;;44.97;23.73;;;7.20;94.00;;;;;;5108664;28;20031;-79
2023/12/12 12:05:30;;;;;;;43.42;23.77;;;7.20;94.00;;;;;;5086773;28;20063;-79
2023/12/12 12:07:56;;;;;;;44.92;22.95;;;7.30;94.00;;;;;;5110390;28;20039;-79
2023/12/12 12:10:23;;;;;;;44.13;23.42;;;7.30;94.00;;;;;;5107786;28;20035;-79
2023/12/12 12:12:53;;;;;;;55.03;26.05;;;7.30;94.00;;;;;;5133782;28;20047;-80
2023/12/12 12:15:19;;;;;;;45.40;24.15;;;7.40;94.10;;;;;;5127729;28;20039;-79
2023/12/12 12:17:45;;;;;;;42.55;23.20;;;7.40;94.10;;;;;;5109095;28;20039;-79
2023/12/12 12:20:10;;;;;;;46.78;23.80;;;7.40;94.10;;;;;;5109145;28;20069;-79
2023/12/12 12:22:39;;;;;;;50.75;22.50;;;7.50;94.10;;;;;;5127413;27;20039;-79
2023/12/12 12:25:06;;;;;;;65.40;25.10;;;7.50;94.10;;;;;;5113131;27;20108;-79
2023/12/12 12:27:34;;;;;;;48.22;22.88;;;7.50;94.10;;;;;;5134111;27;20054;-79
2023/12/12 12:30:02;;;;;;;52.10;24.08;;;7.50;94.10;;;;;;5131523;27;20039;-79
2023/12/12 12:32:27;;;;;;;50.53;23.98;;;7.60;94.10;;;;;;5131172;27;20434;-79
2023/12/12 12:35:11;;;;;;;60.08;26.15;;;7.60;94.10;;;;;;5132877;27;20087;-79
2023/12/12 12:37:38;;;;;;;56.70;24.67;;;7.70;94.20;;;;;;5111781;28;20506;-79
2023/12/12 12:40:06;;;;;;;54.15;25.33;;;7.70;94.20;;;;;;5134189;27;20032;-79